Time;durP1;ratioP1;P1;durP2;ratioP2;P2;SDS_P1;SDS_P2;PMS_P1;PMS_P2;Temp;Humidity;BMP_temperature;BMP_pressure;BME280_temperature;BME280_humidity;BME280_pressure;Samples;Min_cycle;Max_cycle;Signal;HPM_P1;HPM_P2
2024/03/14 00:00:47;;;;;;;16.10;7.97;;;9.30;99.90;;;;;;4199914;28;20203;-81
2024/03/14 00:02:49;;;;;;;14.00;7.60;;;9.30;99.90;;;;;;4200054;28;20271;-81
2024/03/14 00:04:51;;;;;;;11.60;7.53;;;9.30;99.90;;;;;;4192728;28;20217;-80
2024/03/14 00:06:53;;;;;;;14.43;8.23;;;9.30;99.90;;;;;;4184303;28;20904;-81
2024/03/14 00:08:54;;;;;;;13.57;7.97;;;9.40;99.90;;;;;;4202194;28;20203;-80
2024/03/14 00:10:56;;;;;;;12.43;7.63;;;9.30;99.90;;;;;;4201205;28;20202;-80
2024/03/14 00:12:58;;;;;;;13.53;8.27;;;9.30;99.90;;;;;;4196553;28;20588;-80
2024/03/14 00:15:00;;;;;;;14.37;7.80;;;9.30;99.90;;;;;;4200384;28;20595;-80
2024/03/14 00:17:02;;;;;;;12.37;8.00;;;9.30;99.90;;;;;;4181904;28;20787;-80
2024/03/14 00:19:03;;;;;;;13.97;7.10;;;9.30;99.90;;;;;;4183398;28;20665;-80
2024/03/14 00:21:09;;;;;;;11.67;7.13;;;9.30;99.90;;;;;;4189411;28;20701;-80
2024/03/14 00:23:12;;;;;;;14.80;8.47;;;9.20;99.90;;;;;;4188075;28;20256;-80
2024/03/14 00:25:14;;;;;;;14.17;8.57;;;9.20;99.90;;;;;;4198037;28;20273;-80
2024/03/14 00:27:17;;;;;;;13.33;7.87;;;9.20;99.90;;;;;;4200033;28;20230;-80
2024/03/14 00:29:19;;;;;;;19.00;7.50;;;9.20;99.90;;;;;;4183772;28;20217;-80
2024/03/14 00:31:21;;;;;;;14.43;8.57;;;9.20;99.90;;;;;;4166227;28;20209;-80
2024/03/14 00:33:23;;;;;;;12.93;7.93;;;9.20;99.90;;;;;;4195765;28;20215;-78
2024/03/14 00:35:25;;;;;;;13.40;8.20;;;9.60;99.90;;;;;;4192209;28;20205;-78
2024/03/14 00:37:27;;;;;;;13.47;8.30;;;9.20;99.90;;;;;;4190941;28;20236;-78
2024/03/14 00:39:31;;;;;;;15.10;8.77;;;9.20;99.90;;;;;;4170758;28;20205;-78
2024/03/14 00:41:33;;;;;;;14.33;8.20;;;9.20;99.90;;;;;;4176359;28;20218;-79
2024/03/14 00:43:36;;;;;;;14.07;8.60;;;9.20;99.90;;;;;;4190059;28;20217;-77
2024/03/14 00:45:39;;;;;;;15.87;8.73;;;9.20;99.90;;;;;;4185661;28;20214;-80
2024/03/14 00:47:41;;;;;;;13.70;8.67;;;9.10;99.90;;;;;;4189727;28;20283;-77
2024/03/14 00:49:42;;;;;;;15.20;9.27;;;9.10;99.90;;;;;;4187956;28;20209;-79
2024/03/14 00:51:44;;;;;;;16.50;9.30;;;9.10;99.90;;;;;;4189118;28;20710;-78
2024/03/14 00:53:46;;;;;;;14.43;9.03;;;9.10;99.90;;;;;;4170367;28;20211;-79
2024/03/14 00:55:49;;;;;;;15.20;9.30;;;9.10;99.90;;;;;;4189028;28;20236;-78
2024/03/14 00:57:51;;;;;;;18.03;10.13;;;9.10;99.90;;;;;;4189319;28;20225;-78
2024/03/14 00:59:53;;;;;;;17.83;9.53;;;9.10;99.90;;;;;;4171179;28;20296;-79
2024/03/14 01:01:55;;;;;;;15.63;9.10;;;9.10;99.90;;;;;;4188212;28;20655;-79
2024/03/14 01:03:57;;;;;;;15.67;9.73;;;9.10;99.90;;;;;;4186742;28;20874;-78
2024/03/14 01:05:59;;;;;;;15.40;9.17;;;9.10;99.90;;;;;;4188429;28;20208;-78
2024/03/14 01:08:00;;;;;;;15.40;9.20;;;9.10;99.90;;;;;;4171946;28;20240;-78
2024/03/14 01:10:04;;;;;;;16.13;9.90;;;9.00;99.90;;;;;;4178021;28;20213;-77
2024/03/14 01:12:06;;;;;;;17.47;10.50;;;9.10;99.90;;;;;;4179916;28;20684;-78
2024/03/14 01:14:11;;;;;;;17.17;9.77;;;9.00;99.90;;;;;;4175126;28;20264;-77
2024/03/14 01:16:13;;;;;;;17.20;9.60;;;9.10;99.90;;;;;;4181226;28;20206;-78
2024/03/14 01:18:14;;;;;;;16.47;10.47;;;9.10;99.90;;;;;;4189716;28;20237;-79
2024/03/14 01:20:17;;;;;;;16.37;9.67;;;9.10;99.90;;;;;;4205224;28;20224;-79
2024/03/14 01:22:19;;;;;;;18.83;9.83;;;9.10;99.90;;;;;;4186269;28;20710;-79
2024/03/14 01:24:21;;;;;;;16.90;9.83;;;9.10;99.90;;;;;;4187192;28;20768;-79
2024/03/14 01:26:23;;;;;;;19.27;10.30;;;9.10;99.90;;;;;;4180932;28;20212;-79
2024/03/14 01:28:25;;;;;;;21.37;10.90;;;9.10;99.90;;;;;;4182879;28;20249;-79
2024/03/14 01:30:27;;;;;;;18.07;10.90;;;9.10;99.90;;;;;;4197457;28;20226;-80
2024/03/14 01:32:29;;;;;;;15.60;9.67;;;9.10;99.90;;;;;;4179413;28;20231;-80
2024/03/14 01:34:32;;;;;;;20.27;10.60;;;9.10;99.90;;;;;;4195580;28;20291;-79
2024/03/14 01:36:37;;;;;;;16.60;10.23;;;9.10;99.90;;;;;;4180204;28;20264;-80
2024/03/14 01:38:42;;;;;;;17.77;10.60;;;9.10;99.90;;;;;;4179554;28;20682;-79
2024/03/14 01:40:44;;;;;;;18.87;11.33;;;9.10;99.90;;;;;;4166673;28;20219;-79
2024/03/14 01:42:46;;;;;;;17.60;11.17;;;9.10;99.90;;;;;;4180081;28;20251;-80
2024/03/14 01:44:55;;;;;;;18.20;11.23;;;9.20;99.90;;;;;;4178285;28;20678;-81
2024/03/14 01:46:57;;;;;;;18.43;10.73;;;9.10;99.90;;;;;;4182921;28;20217;-79
2024/03/14 01:48:59;;;;;;;15.10;9.70;;;9.10;99.90;;;;;;4180323;28;20213;-80
2024/03/14 01:51:00;;;;;;;16.50;10.57;;;9.10;99.90;;;;;;4181036;28;20238;-79
2024/03/14 01:53:02;;;;;;;15.53;10.30;;;9.10;99.90;;;;;;4160888;28;20207;-79
2024/03/14 01:55:08;;;;;;;19.23;11.30;;;9.10;99.90;;;;;;4168298;28;20210;-79
2024/03/14 01:57:09;;;;;;;18.57;10.33;;;9.10;99.90;;;;;;4184264;28;20225;-79
2024/03/14 01:59:13;;;;;;;18.90;11.03;;;9.10;99.90;;;;;;4198165;28;20210;-79
2024/03/14 02:01:15;;;;;;;17.63;10.80;;;9.10;99.90;;;;;;4194047;28;20209;-79
2024/03/14 02:03:17;;;;;;;20.10;10.57;;;9.10;99.90;;;;;;4195730;28;20264;-79
2024/03/14 02:05:20;;;;;;;18.70;11.60;;;9.10;99.90;;;;;;4180507;28;20254;-79
2024/03/14 02:07:23;;;;;;;19.47;11.20;;;9.10;99.90;;;;;;4197111;28;20358;-79
2024/03/14 02:09:28;;;;;;;20.47;11.40;;;9.10;99.90;;;;;;4179828;28;20262;-79
2024/03/14 02:11:30;;;;;;;17.63;10.90;;;9.10;99.90;;;;;;4177881;28;20202;-79
2024/03/14 02:13:32;;;;;;;21.33;11.83;;;9.10;99.90;;;;;;4178106;28;20697;-80
2024/03/14 02:15:35;;;;;;;20.40;11.77;;;9.10;99.90;;;;;;4193814;28;20190;-79
2024/03/14 02:17:37;;;;;;;17.33;10.83;;;9.10;99.90;;;;;;4180798;28;20232;-79
2024/03/14 02:19:39;;;;;;;19.40;12.07;;;9.10;99.90;;;;;;4175019;28;20206;-79
2024/03/14 02:21:41;;;;;;;23.97;13.13;;;9.10;99.90;;;;;;4178556;28;20282;-79
2024/03/14 02:23:43;;;;;;;22.67;12.03;;;9.10;99.90;;;;;;4179333;28;20604;-79
2024/03/14 02:25:45;;;;;;;20.80;11.87;;;9.10;99.90;;;;;;4194997;28;20691;-80
2024/03/14 02:27:46;;;;;;;18.73;10.97;;;9.10;99.90;;;;;;4193382;28;20332;-80
2024/03/14 02:29:52;;;;;;;19.83;11.77;;;9.10;99.90;;;;;;4175942;28;20209;-80
2024/03/14 02:31:54;;;;;;;23.53;13.07;;;9.10;99.90;;;;;;4164149;28;20209;-79
2024/03/14 02:33:56;;;;;;;17.17;11.10;;;9.10;99.90;;;;;;4188540;28;20220;-79
2024/03/14 02:35:58;;;;;;;18.17;10.00;;;9.10;99.90;;;;;;4192657;28;20225;-79
2024/03/14 02:38:00;;;;;;;21.00;12.07;;;9.10;99.90;;;;;;4158781;28;20269;-79
2024/03/14 02:40:05;;;;;;;21.20;12.43;;;9.10;99.90;;;;;;4177594;28;20587;-79
2024/03/14 02:42:10;;;;;;;20.43;11.50;;;9.10;99.90;;;;;;4177323;28;20284;-79
2024/03/14 02:44:14;;;;;;;18.60;11.73;;;9.10;99.90;;;;;;4166996;28;20236;-79
2024/03/14 02:46:16;;;;;;;19.90;11.60;;;9.10;99.90;;;;;;4173950;28;20231;-79
2024/03/14 02:48:19;;;;;;;21.63;11.70;;;9.10;99.90;;;;;;4192116;28;20232;-79
2024/03/14 02:50:22;;;;;;;19.73;11.03;;;9.10;99.90;;;;;;4174843;28;20579;-79
2024/03/14 02:52:26;;;;;;;20.63;12.20;;;9.10;99.90;;;;;;4186633;28;20229;-79
2024/03/14 02:54:30;;;;;;;20.87;11.70;;;9.00;99.90;;;;;;4172940;28;20585;-79
2024/03/14 02:56:31;;;;;;;24.97;14.10;;;9.10;99.90;;;;;;4190142;28;20627;-80
2024/03/14 02:58:33;;;;;;;24.43;12.80;;;9.10;99.90;;;;;;4168062;28;20309;-79
2024/03/14 03:00:36;;;;;;;21.80;12.47;;;9.20;99.90;;;;;;4187750;28;20695;-79
2024/03/14 03:02:39;;;;;;;21.27;12.80;;;9.20;99.90;;;;;;4188746;28;20759;-79
2024/03/14 03:04:40;;;;;;;24.53;13.50;;;9.20;99.90;;;;;;4172189;28;20646;-79
2024/03/14 03:06:48;;;;;;;22.03;12.80;;;9.10;99.90;;;;;;4187422;28;20208;-79
2024/03/14 03:08:50;;;;;;;28.20;14.03;;;9.20;99.90;;;;;;4173968;28;20240;-80
2024/03/14 03:10:51;;;;;;;23.77;12.70;;;9.20;99.90;;;;;;4156374;28;20744;-79
2024/03/14 03:12:53;;;;;;;26.63;14.30;;;9.20;99.90;;;;;;4171890;28;20198;-79
2024/03/14 03:14:55;;;;;;;21.63;12.70;;;9.20;99.90;;;;;;4170844;28;20203;-79
2024/03/14 03:16:56;;;;;;;24.73;13.73;;;9.20;99.90;;;;;;4171462;28;20236;-79
2024/03/14 03:18:58;;;;;;;26.33;13.50;;;9.20;99.90;;;;;;4191979;28;20636;-79
2024/03/14 03:21:02;;;;;;;24.37;14.00;;;9.20;99.90;;;;;;4158103;28;20211;-79
2024/03/14 03:23:06;;;;;;;27.57;14.10;;;9.20;99.90;;;;;;4189606;28;20209;-79
2024/03/14 03:25:10;;;;;;;24.70;14.03;;;9.20;99.90;;;;;;4195992;28;20734;-79
2024/03/14 03:27:14;;;;;;;30.90;14.80;;;9.20;99.90;;;;;;4191080;28;20229;-80
2024/03/14 03:29:16;;;;;;;30.27;16.17;;;9.20;99.90;;;;;;4182470;28;20209;-79
2024/03/14 03:31:18;;;;;;;22.83;13.43;;;9.20;99.90;;;;;;4163101;28;20458;-80
2024/03/14 03:33:20;;;;;;;30.87;15.53;;;9.20;99.90;;;;;;4181178;28;20202;-79
2024/03/14 03:35:22;;;;;;;29.53;15.93;;;9.20;99.90;;;;;;4163209;28;20222;-79
2024/03/14 03:37:24;;;;;;;27.43;14.60;;;9.30;99.90;;;;;;4181135;28;20289;-79
2024/03/14 03:39:27;;;;;;;33.47;16.47;;;9.20;99.90;;;;;;4159364;28;20214;-79
2024/03/14 03:41:29;;;;;;;30.57;15.77;;;9.20;99.90;;;;;;4195714;28;20200;-79
2024/03/14 03:43:32;;;;;;;31.10;15.70;;;9.20;99.90;;;;;;4180787;28;20232;-79
2024/03/14 03:45:34;;;;;;;31.83;15.57;;;9.20;99.90;;;;;;4193920;28;20225;-79
2024/03/14 03:47:36;;;;;;;30.33;15.50;;;9.50;99.90;;;;;;4163653;28;20666;-79
2024/03/14 03:49:37;;;;;;;34.33;16.73;;;9.30;99.90;;;;;;4174692;28;20863;-79
2024/03/14 03:51:39;;;;;;;33.27;16.90;;;9.20;99.90;;;;;;4180563;28;20214;-79
2024/03/14 03:53:40;;;;;;;30.23;15.33;;;9.20;99.90;;;;;;4154862;28;20234;-79
2024/03/14 03:55:42;;;;;;;34.57;16.30;;;9.20;99.90;;;;;;4195195;28;20230;-79
2024/03/14 03:57:43;;;;;;;39.03;17.80;;;9.20;99.90;;;;;;4192300;28;20243;-79
2024/03/14 03:59:45;;;;;;;31.63;15.57;;;9.30;99.90;;;;;;4178619;28;20586;-79
2024/03/14 04:01:47;;;;;;;33.77;16.70;;;9.20;99.90;;;;;;4192214;28;20214;-80
2024/03/14 04:03:51;;;;;;;34.63;16.73;;;9.20;99.90;;;;;;4176550;28;20245;-79
2024/03/14 04:05:51;;;;;;;36.40;17.30;;;9.20;99.90;;;;;;4179612;28;20233;-79
2024/03/14 04:07:55;;;;;;;35.03;16.97;;;9.20;99.90;;;;;;4177796;28;20232;-79
2024/03/14 04:09:56;;;;;;;37.27;17.77;;;9.20;99.90;;;;;;4168570;28;20192;-79
2024/03/14 04:11:58;;;;;;;35.60;15.67;;;9.20;99.90;;;;;;4179017;28;20253;-79
2024/03/14 04:13:59;;;;;;;31.77;15.03;;;9.20;99.90;;;;;;4154607;28;20296;-79
2024/03/14 04:16:03;;;;;;;31.67;15.77;;;9.20;99.90;;;;;;4160712;28;20268;-79
2024/03/14 04:18:06;;;;;;;28.67;14.10;;;9.20;99.90;;;;;;4189448;28;20229;-79
2024/03/14 04:20:11;;;;;;;31.90;15.17;;;9.20;99.90;;;;;;4172923;28;20232;-79
2024/03/14 04:22:14;;;;;;;27.57;14.07;;;9.20;99.90;;;;;;4162607;28;20249;-79
2024/03/14 04:24:17;;;;;;;30.07;15.10;;;9.30;99.90;;;;;;4165721;28;20220;-79
2024/03/14 04:26:19;;;;;;;27.63;14.77;;;9.60;99.90;;;;;;4178006;28;20260;-80
2024/03/14 04:28:23;;;;;;;28.00;14.40;;;9.20;99.90;;;;;;4189513;28;20707;-80
2024/03/14 04:30:27;;;;;;;29.73;15.07;;;9.30;99.90;;;;;;4175571;28;20236;-79
2024/03/14 04:32:28;;;;;;;28.87;14.57;;;9.20;99.90;;;;;;4194222;28;20197;-79
2024/03/14 04:34:30;;;;;;;27.83;15.30;;;9.30;99.90;;;;;;4176673;28;20191;-79
2024/03/14 04:36:33;;;;;;;27.97;15.10;;;9.20;99.90;;;;;;4193710;28;20220;-79
2024/03/14 04:38:37;;;;;;;29.50;15.37;;;9.20;99.90;;;;;;4190402;28;20217;-79
2024/03/14 04:40:39;;;;;;;30.07;14.40;;;9.20;99.90;;;;;;4166263;28;20311;-80
2024/03/14 04:42:40;;;;;;;30.27;15.77;;;9.30;99.90;;;;;;4195239;28;20254;-79
2024/03/14 04:44:43;;;;;;;27.83;14.37;;;9.30;99.90;;;;;;4161579;28;20234;-78
2024/03/14 04:46:45;;;;;;;27.50;14.60;;;9.20;99.90;;;;;;4174836;28;20221;-79
2024/03/14 04:48:47;;;;;;;27.90;14.87;;;9.20;99.90;;;;;;4159073;28;20289;-78
2024/03/14 04:50:49;;;;;;;25.23;13.37;;;9.20;99.90;;;;;;4174841;28;21402;-78
2024/03/14 04:52:51;;;;;;;27.50;14.83;;;9.20;99.90;;;;;;4187952;28;20762;-79
2024/03/14 04:54:53;;;;;;;28.13;14.90;;;9.20;99.90;;;;;;4171394;28;21112;-77
2024/03/14 04:56:55;;;;;;;26.97;13.47;;;9.20;99.90;;;;;;4176517;28;20233;-79
2024/03/14 04:58:57;;;;;;;27.50;14.53;;;9.20;99.90;;;;;;4175519;28;20232;-80
2024/03/14 05:00:59;;;;;;;24.67;13.53;;;9.20;99.90;;;;;;4175122;28;20625;-80
2024/03/14 05:03:04;;;;;;;27.77;13.80;;;9.30;99.90;;;;;;4178844;28;20213;-80
2024/03/14 05:05:09;;;;;;;26.07;14.07;;;9.30;99.90;;;;;;4165848;28;20795;-81
2024/03/14 05:07:12;;;;;;;26.77;14.47;;;9.20;99.90;;;;;;4183864;28;20291;-83
2024/03/14 05:09:14;;;;;;;26.53;14.50;;;9.20;99.90;;;;;;4158893;28;20222;-82
2024/03/14 05:11:16;;;;;;;25.53;13.80;;;9.60;99.90;;;;;;4173082;28;20243;-81
2024/03/14 05:13:19;;;;;;;23.53;12.63;;;9.30;99.90;;;;;;4173418;28;20253;-80
2024/03/14 05:15:21;;;;;;;26.00;13.40;;;9.20;99.90;;;;;;4173666;28;20198;-82
2024/03/14 05:17:23;;;;;;;23.77;12.57;;;9.30;99.90;;;;;;4159903;28;20246;-81
2024/03/14 05:19:25;;;;;;;22.50;12.07;;;9.40;99.90;;;;;;4162953;28;20579;-81
2024/03/14 05:21:27;;;;;;;21.23;12.30;;;9.30;99.90;;;;;;4182761;28;20202;-81
2024/03/14 05:23:29;;;;;;;25.33;13.43;;;9.60;99.90;;;;;;4161154;28;20244;-80
2024/03/14 05:25:32;;;;;;;24.90;12.83;;;9.30;99.90;;;;;;4175063;28;20221;-83
2024/03/14 05:27:34;;;;;;;23.90;13.33;;;9.30;99.90;;;;;;4171899;28;20280;-83
2024/03/14 05:29:36;;;;;;;24.00;12.73;;;9.30;99.90;;;;;;4182393;28;20209;-83
2024/03/14 05:31:38;;;;;;;22.63;12.43;;;9.30;99.90;;;;;;4166546;28;20296;-81
2024/03/14 05:33:42;;;;;;;21.70;11.83;;;9.30;99.90;;;;;;4173115;28;20206;-82
2024/03/14 05:35:45;;;;;;;19.43;11.10;;;9.30;99.90;;;;;;4173018;28;20199;-83
2024/03/14 05:37:49;;;;;;;22.37;12.73;;;9.30;99.90;;;;;;4183087;28;20233;-80
2024/03/14 05:39:51;;;;;;;20.90;10.93;;;9.30;99.90;;;;;;4162720;28;20237;-80
2024/03/14 05:41:53;;;;;;;21.33;11.47;;;9.30;99.90;;;;;;4177786;28;20213;-81
2024/03/14 05:43:55;;;;;;;23.90;13.20;;;9.30;99.90;;;;;;4174665;28;20220;-80
2024/03/14 05:45:57;;;;;;;22.87;12.27;;;9.30;99.90;;;;;;4179367;28;20217;-79
2024/03/14 05:48:00;;;;;;;27.87;12.93;;;9.30;99.90;;;;;;4179300;28;20245;-81
2024/03/14 05:50:06;;;;;;;22.67;12.67;;;9.30;99.90;;;;;;4193245;28;20212;-81
2024/03/14 05:52:10;;;;;;;22.30;12.50;;;9.40;99.90;;;;;;4178116;28;20224;-82
2024/03/14 05:54:11;;;;;;;21.43;11.90;;;9.40;99.90;;;;;;4177317;28;20205;-80
2024/03/14 05:56:13;;;;;;;23.30;12.70;;;9.40;99.90;;;;;;4166724;28;20218;-81
2024/03/14 05:58:15;;;;;;;21.50;11.97;;;9.40;99.90;;;;;;4174456;28;20814;-80
2024/03/14 06:00:20;;;;;;;20.80;12.30;;;9.40;99.90;;;;;;4176602;28;20240;-82
2024/03/14 06:02:23;;;;;;;20.60;11.33;;;9.40;99.90;;;;;;4178641;28;20216;-84
2024/03/14 06:04:25;;;;;;;22.53;12.10;;;9.50;99.90;;;;;;4162890;28;20286;-82
2024/03/14 06:06:27;;;;;;;21.20;11.53;;;9.40;99.90;;;;;;4192760;28;20225;-82
2024/03/14 06:08:29;;;;;;;19.13;10.70;;;9.80;99.90;;;;;;4179914;28;20253;-86
2024/03/14 06:10:31;;;;;;;21.37;11.63;;;9.40;99.90;;;;;;4169956;28;20210;-81
2024/03/14 06:12:32;;;;;;;19.47;11.30;;;9.40;99.90;;;;;;4192235;28;20205;-81
2024/03/14 06:14:34;;;;;;;21.00;10.30;;;9.40;99.90;;;;;;4190037;28;20301;-81
2024/03/14 06:16:36;;;;;;;20.10;11.27;;;9.70;99.90;;;;;;4175498;28;20213;-81
2024/03/14 06:18:38;;;;;;;21.67;10.67;;;9.50;99.90;;;;;;4175436;28;20283;-81
2024/03/14 06:20:42;;;;;;;18.73;11.30;;;9.50;99.90;;;;;;4177063;28;20206;-81
2024/03/14 06:22:45;;;;;;;21.13;11.10;;;9.50;99.90;;;;;;4178627;28;20220;-80
2024/03/14 06:24:47;;;;;;;20.40;10.97;;;9.50;99.90;;;;;;4160002;28;20231;-81
2024/03/14 06:26:49;;;;;;;19.50;11.03;;;9.50;99.90;;;;;;4175405;28;20214;-80
2024/03/14 06:28:54;;;;;;;20.87;10.83;;;9.50;99.90;;;;;;4189699;28;20216;-81
2024/03/14 06:30:56;;;;;;;19.80;11.07;;;9.50;99.90;;;;;;4178239;28;20214;-81
2024/03/14 06:32:57;;;;;;;20.07;11.30;;;9.50;99.90;;;;;;4179918;28;20256;-80
2024/03/14 06:34:59;;;;;;;21.60;11.13;;;9.60;99.90;;;;;;4177693;28;20247;-80
2024/03/14 06:37:01;;;;;;;18.93;9.97;;;9.60;99.90;;;;;;4194749;28;20233;-80
2024/03/14 06:39:07;;;;;;;17.73;10.47;;;9.70;99.90;;;;;;4174007;28;20243;-81
2024/03/14 06:41:09;;;;;;;16.27;9.60;;;9.70;99.90;;;;;;4194465;28;20627;-79
2024/03/14 06:43:11;;;;;;;19.97;11.43;;;9.70;99.90;;;;;;4190822;28;20220;-81
2024/03/14 06:45:13;;;;;;;18.27;10.13;;;9.80;99.90;;;;;;4194298;28;20222;-79
2024/03/14 06:47:17;;;;;;;20.10;10.50;;;9.80;99.90;;;;;;4171917;28;20275;-80
2024/03/14 06:49:19;;;;;;;19.47;10.87;;;9.90;99.90;;;;;;4160085;28;20817;-80
2024/03/14 06:51:22;;;;;;;19.80;11.37;;;10.00;99.90;;;;;;4174603;28;20221;-82
2024/03/14 06:53:24;;;;;;;19.93;11.10;;;10.00;99.90;;;;;;4158223;28;20663;-82
2024/03/14 06:55:26;;;;;;;20.23;11.03;;;10.10;99.90;;;;;;4177376;28;20210;-83
2024/03/14 06:57:28;;;;;;;18.37;11.00;;;10.10;99.90;;;;;;4175454;28;20787;-81
2024/03/14 06:59:33;;;;;;;18.90;10.07;;;10.20;99.90;;;;;;4170731;28;20272;-80
2024/03/14 07:01:35;;;;;;;16.33;10.07;;;10.30;99.90;;;;;;4192140;28;20204;-80
2024/03/14 07:03:37;;;;;;;20.77;11.33;;;10.30;99.90;;;;;;4179733;28;20203;-82
2024/03/14 07:05:42;;;;;;;20.93;10.93;;;10.40;99.90;;;;;;4167733;28;20237;-78
2024/03/14 07:07:44;;;;;;;18.67;11.07;;;10.40;99.90;;;;;;4197700;28;20230;-80
2024/03/14 07:09:47;;;;;;;19.17;10.67;;;10.40;99.90;;;;;;4195772;28;20321;-81
2024/03/14 07:11:49;;;;;;;20.27;11.40;;;10.50;99.90;;;;;;4189025;28;20206;-79
2024/03/14 07:13:51;;;;;;;19.37;11.23;;;10.50;99.90;;;;;;4195538;28;20261;-79
2024/03/14 07:15:53;;;;;;;18.33;10.20;;;10.50;99.90;;;;;;4167146;28;20207;-79
2024/03/14 07:17:58;;;;;;;18.37;10.90;;;10.50;99.90;;;;;;4190288;28;20226;-80
2024/03/14 07:20:06;;;;;;;18.70;10.57;;;10.40;99.90;;;;;;4166284;28;20310;-80
2024/03/14 07:22:09;;;;;;;20.17;12.00;;;10.40;99.90;;;;;;4161131;28;20210;-79
2024/03/14 07:24:11;;;;;;;19.70;11.00;;;10.40;99.90;;;;;;4197763;28;20232;-79
2024/03/14 07:26:17;;;;;;;20.40;11.20;;;10.40;99.90;;;;;;4175178;28;20612;-79
2024/03/14 07:28:19;;;;;;;18.63;11.13;;;10.40;99.90;;;;;;4181542;28;20231;-80
2024/03/14 07:30:24;;;;;;;21.27;11.20;;;10.50;99.90;;;;;;4198001;28;20248;-80
2024/03/14 07:32:26;;;;;;;23.23;11.70;;;10.50;99.90;;;;;;4176055;28;20238;-79
2024/03/14 07:34:29;;;;;;;19.33;10.70;;;10.50;99.90;;;;;;4169769;28;20206;-78
2024/03/14 07:36:31;;;;;;;21.00;11.03;;;10.50;99.90;;;;;;4195327;28;20205;-78
2024/03/14 07:38:34;;;;;;;20.20;11.13;;;10.50;99.90;;;;;;4168122;28;20223;-79
2024/03/14 07:40:36;;;;;;;20.33;11.30;;;10.50;99.90;;;;;;4182740;28;20237;-80
2024/03/14 07:42:39;;;;;;;21.23;12.13;;;10.50;99.90;;;;;;4163272;28;20217;-80
2024/03/14 07:44:45;;;;;;;20.10;10.90;;;10.50;99.90;;;;;;4177249;28;20233;-82
2024/03/14 07:46:48;;;;;;;19.07;10.60;;;10.50;99.90;;;;;;4165431;28;20710;-78
2024/03/14 07:48:51;;;;;;;20.07;10.93;;;10.60;99.90;;;;;;4190030;28;20206;-80
2024/03/14 07:50:53;;;;;;;19.90;10.33;;;10.80;99.90;;;;;;4189738;28;20199;-79
2024/03/14 07:52:56;;;;;;;22.60;11.17;;;10.60;99.90;;;;;;4189609;28;20213;-79
2024/03/14 07:54:57;;;;;;;21.37;11.13;;;10.70;99.90;;;;;;4179448;28;20260;-79
2024/03/14 07:56:59;;;;;;;17.33;10.87;;;10.70;99.90;;;;;;4160377;28;20223;-78
2024/03/14 07:59:02;;;;;;;17.00;9.97;;;10.70;99.90;;;;;;4195697;28;20301;-78
2024/03/14 08:01:07;;;;;;;18.30;10.20;;;11.00;99.90;;;;;;4165985;28;20298;-81
2024/03/14 08:03:09;;;;;;;17.60;9.73;;;10.80;99.90;;;;;;4180767;28;20242;-79
2024/03/14 08:05:11;;;;;;;19.07;10.90;;;10.90;99.90;;;;;;4182667;28;20707;-79
2024/03/14 08:07:16;;;;;;;15.60;9.73;;;10.90;99.90;;;;;;4183523;28;20273;-79
2024/03/14 08:09:25;;;;;;;17.37;9.60;;;10.90;99.90;;;;;;4194381;28;20206;-81
2024/03/14 08:11:28;;;;;;;17.17;10.70;;;11.00;99.90;;;;;;4206605;28;20658;-79
2024/03/14 08:13:31;;;;;;;17.73;10.30;;;11.00;99.90;;;;;;4200862;28;20213;-82
2024/03/14 08:15:36;;;;;;;19.73;10.33;;;11.00;99.90;;;;;;4181388;28;20198;-79
2024/03/14 08:17:40;;;;;;;17.20;9.83;;;11.10;99.90;;;;;;4178335;28;20250;-80
2024/03/14 08:19:43;;;;;;;17.73;10.20;;;11.20;99.90;;;;;;4167631;28;20313;-82
2024/03/14 08:21:47;;;;;;;18.20;10.70;;;11.20;99.90;;;;;;4203128;28;20236;-80
2024/03/14 08:23:49;;;;;;;18.03;10.30;;;11.20;99.90;;;;;;4180350;28;20310;-80
2024/03/14 08:25:50;;;;;;;15.57;9.27;;;11.30;99.90;;;;;;4177584;28;20739;-79
2024/03/14 08:27:53;;;;;;;17.70;9.43;;;11.30;99.90;;;;;;4179785;28;20264;-79
2024/03/14 08:29:55;;;;;;;15.97;9.03;;;11.30;99.90;;;;;;4173471;28;20206;-80
2024/03/14 08:32:54;;;;;;;15.90;9.57;;;11.30;99.90;;;;;;4276811;27;20622;-79
2024/03/14 08:34:56;;;;;;;17.20;10.40;;;11.30;99.90;;;;;;4222010;28;20276;-79
2024/03/14 08:36:58;;;;;;;18.87;10.27;;;11.30;99.90;;;;;;4233117;28;20300;-79
2024/03/14 08:39:00;;;;;;;18.27;9.63;;;11.30;99.90;;;;;;4227559;28;20265;-77
2024/03/14 08:41:03;;;;;;;17.77;9.50;;;11.20;99.90;;;;;;4226490;28;20221;-77
2024/03/14 08:43:06;;;;;;;19.40;9.40;;;11.20;99.90;;;;;;4228009;28;20194;-78
2024/03/14 08:45:09;;;;;;;15.53;9.13;;;11.20;99.90;;;;;;4225735;28;20672;-77
2024/03/14 08:47:15;;;;;;;18.53;9.80;;;11.30;99.90;;;;;;4229641;27;20220;-77
2024/03/14 08:49:17;;;;;;;15.43;9.37;;;11.30;99.90;;;;;;4217764;28;20209;-82
2024/03/14 08:51:22;;;;;;;14.37;8.33;;;11.30;99.90;;;;;;4210554;28;20300;-80
2024/03/14 08:53:27;;;;;;;15.77;9.67;;;11.30;99.90;;;;;;4219118;28;20205;-80
2024/03/14 08:55:33;;;;;;;15.97;9.00;;;11.40;99.90;;;;;;4227337;28;20193;-83
2024/03/14 08:57:35;;;;;;;17.47;9.63;;;11.40;99.90;;;;;;4234171;28;20226;-80
2024/03/14 08:59:37;;;;;;;17.77;10.63;;;11.30;99.90;;;;;;4207632;28;20201;-80
2024/03/14 09:01:38;;;;;;;15.93;9.70;;;11.50;99.90;;;;;;4210440;28;20207;-77
2024/03/14 09:03:40;;;;;;;15.20;8.87;;;11.50;99.90;;;;;;4225860;28;20201;-77
2024/03/14 09:05:42;;;;;;;14.37;8.03;;;11.60;99.90;;;;;;4214201;28;20210;-78
2024/03/14 09:07:45;;;;;;;16.20;9.40;;;11.70;99.90;;;;;;4230389;28;20291;-78
2024/03/14 09:09:48;;;;;;;14.70;8.67;;;11.70;99.90;;;;;;4224209;28;20203;-77
2024/03/14 09:11:49;;;;;;;22.90;9.77;;;11.80;99.90;;;;;;4213254;28;20279;-79
2024/03/14 09:13:51;;;;;;;14.03;8.60;;;11.80;99.90;;;;;;4219623;28;20205;-77
2024/03/14 09:15:52;;;;;;;16.13;10.00;;;11.90;99.90;;;;;;4208620;28;20253;-78
2024/03/14 09:17:55;;;;;;;13.47;8.43;;;11.90;99.90;;;;;;4231056;28;20219;-77
2024/03/14 09:19:59;;;;;;;15.70;8.30;;;12.00;99.90;;;;;;4210521;27;20204;-77
2024/03/14 09:22:01;;;;;;;15.20;9.80;;;12.00;99.90;;;;;;4234719;27;20238;-77
2024/03/14 09:24:05;;;;;;;13.63;8.63;;;12.10;99.90;;;;;;4235726;28;20626;-77
2024/03/14 09:26:07;;;;;;;15.43;9.03;;;12.20;99.90;;;;;;4228882;28;20249;-79
2024/03/14 09:28:11;;;;;;;15.77;9.03;;;12.20;99.90;;;;;;4228936;28;20223;-80
2024/03/14 09:30:13;;;;;;;16.93;9.37;;;12.20;99.90;;;;;;4222019;28;20210;-81
2024/03/14 09:32:15;;;;;;;16.07;8.53;;;12.10;99.90;;;;;;4208537;28;20591;-82
2024/03/14 09:34:18;;;;;;;15.67;8.83;;;12.20;99.90;;;;;;4212375;28;20210;-80
2024/03/14 09:36:20;;;;;;;13.73;8.53;;;12.20;99.90;;;;;;4217407;28;20233;-82
2024/03/14 09:38:22;;;;;;;13.33;8.90;;;12.20;99.90;;;;;;4218911;28;20237;-83
2024/03/14 09:40:44;;;;;;;14.33;8.60;;;12.20;99.90;;;;;;4199578;28;20218;-81
2024/03/14 09:43:04;;;;;;;13.23;7.80;;;12.20;99.90;;;;;;4214994;28;20199;-81
2024/03/14 09:45:12;;;;;;;12.37;7.93;;;12.20;99.90;;;;;;4215988;28;20215;-81
2024/03/14 09:47:20;;;;;;;14.90;7.90;;;12.20;99.90;;;;;;4214966;28;20234;-79
2024/03/14 09:49:24;;;;;;;13.00;7.80;;;12.30;99.90;;;;;;4211482;28;20261;-80
2024/03/14 09:51:27;;;;;;;12.77;7.90;;;12.30;99.90;;;;;;4206335;28;20662;-81
2024/03/14 09:53:30;;;;;;;14.33;7.17;;;12.30;99.90;;;;;;4028105;28;214414;-80
2024/03/14 09:55:32;;;;;;;15.00;8.03;;;12.40;99.90;;;;;;4182718;28;20282;-81
2024/03/14 09:57:36;;;;;;;11.37;7.60;;;12.40;99.90;;;;;;4183218;28;20229;-80
2024/03/14 09:59:37;;;;;;;10.80;7.13;;;12.40;99.90;;;;;;4181988;28;20210;-80
2024/03/14 10:01:40;;;;;;;11.77;7.20;;;12.40;99.90;;;;;;4180178;28;20333;-81
2024/03/14 10:03:41;;;;;;;9.30;6.17;;;12.50;99.90;;;;;;4179311;28;20670;-80
2024/03/14 10:05:43;;;;;;;13.30;7.63;;;12.50;99.90;;;;;;4183080;28;20202;-80
2024/03/14 10:07:45;;;;;;;9.83;6.57;;;12.50;99.90;;;;;;4148955;28;20231;-80
2024/03/14 10:09:48;;;;;;;13.30;7.30;;;12.50;99.90;;;;;;4174546;28;20214;-80
2024/03/14 10:11:51;;;;;;;11.50;7.07;;;12.50;99.90;;;;;;4178975;28;20239;-80
2024/03/14 10:13:54;;;;;;;11.77;7.33;;;12.50;99.90;;;;;;4182236;28;20834;-80
2024/03/14 10:15:55;;;;;;;11.13;6.67;;;12.50;99.90;;;;;;4171595;28;20214;-80
2024/03/14 10:17:58;;;;;;;12.40;7.17;;;12.40;99.90;;;;;;4172126;28;20219;-80
2024/03/14 10:20:00;;;;;;;13.37;7.10;;;12.50;99.90;;;;;;4152525;28;20216;-81
2024/03/14 10:22:04;;;;;;;12.53;7.87;;;12.50;99.90;;;;;;4177631;28;20185;-79
2024/03/14 10:24:06;;;;;;;12.60;7.50;;;12.50;99.90;;;;;;4170442;28;20281;-80
2024/03/14 10:26:09;;;;;;;14.40;8.13;;;12.50;99.90;;;;;;4185855;28;20206;-79
2024/03/14 10:28:17;;;;;;;13.53;7.70;;;12.60;99.90;;;;;;4168545;28;20794;-81
2024/03/14 10:30:21;;;;;;;13.50;8.10;;;12.60;99.90;;;;;;4165670;28;20678;-80